createdAt,value
2023-11-25T00:00:01.659Z,0
2023-11-25T00:16:02.570Z,0
2023-11-25T00:31:03.610Z,0
2023-11-25T00:46:04.371Z,0
2023-11-25T01:00:04.864Z,0
2023-11-25T01:16:05.494Z,0
2023-11-25T01:31:05.310Z,0
2023-11-25T01:46:01.897Z,0
2023-11-25T02:00:02.572Z,0
2023-11-25T02:16:03.181Z,0
2023-11-25T02:31:03.796Z,0
2023-11-25T02:46:04.536Z,0
2023-11-25T03:00:05.171Z,0
2023-11-25T03:16:04.949Z,0
2023-11-25T03:31:01.581Z,0
2023-11-25T03:46:01.470Z,0
2023-11-25T04:00:02.790Z,0
2023-11-25T04:16:02.611Z,0
2023-11-25T04:31:04.224Z,0
2023-11-25T04:46:11.984Z,0
2023-11-25T05:00:05.692Z,0
2023-11-25T05:16:06.081Z,0
2023-11-25T05:31:01.644Z,0
2023-11-25T05:46:02.281Z,0
2023-11-25T06:00:02.922Z,0
2023-11-25T06:16:03.651Z,0
2023-11-25T06:31:04.569Z,2
2023-11-25T06:46:05.531Z,13
2023-11-25T07:00:01.192Z,47
2023-11-25T07:16:01.656Z,110
2023-11-25T07:31:02.405Z,66
2023-11-25T07:46:03.129Z,81
2023-11-25T08:00:03.670Z,140
2023-11-25T08:16:04.651Z,170
2023-11-25T08:31:05.424Z,205
2023-11-25T08:46:06.070Z,234
2023-11-25T09:00:01.442Z,259
2023-11-25T09:16:02.123Z,281
2023-11-25T09:31:02.766Z,301
2023-11-25T09:46:01.450Z,319
2023-11-25T10:00:04.368Z,317
2023-11-25T10:16:05.148Z,329
2023-11-25T10:31:05.873Z,355
2023-11-25T10:46:01.696Z,379
2023-11-25T11:00:02.196Z,366
2023-11-25T11:16:03.222Z,258
2023-11-25T11:31:04.090Z,394
2023-11-25T11:46:04.855Z,358
2023-11-25T12:00:05.906Z,359
2023-11-25T12:16:01.708Z,335
2023-11-25T12:31:01.860Z,308
2023-11-25T12:46:02.644Z,290
2023-11-25T13:00:03.266Z,265
2023-11-25T13:16:03.312Z,233
2023-11-25T13:31:04.802Z,197
2023-11-25T13:46:05.546Z,162
2023-11-25T14:00:06.045Z,128
2023-11-25T14:16:01.941Z,40
2023-11-25T14:31:02.952Z,25
2023-11-25T14:46:03.617Z,19
2023-11-25T15:00:04.510Z,14
2023-11-25T15:16:05.169Z,10
2023-11-25T15:31:05.677Z,2
2023-11-25T15:46:06.048Z,0
2023-11-25T16:00:01.611Z,0
2023-11-25T16:16:02.450Z,0
2023-11-25T16:31:03.394Z,0
2023-11-25T16:46:03.986Z,0
2023-11-25T17:00:04.681Z,0
2023-11-25T17:16:05.514Z,0
2023-11-25T17:31:01.307Z,0
2023-11-25T17:46:01.889Z,0
2023-11-25T18:00:02.933Z,0
2023-11-25T18:16:03.999Z,0
2023-11-25T18:31:04.480Z,0
2023-11-25T18:46:05.347Z,0
2023-11-25T19:00:06.009Z,0
2023-11-25T19:16:01.765Z,0
2023-11-25T19:31:02.634Z,0
2023-11-25T19:46:03.835Z,0
2023-11-25T20:00:04.161Z,0
2023-11-25T20:16:05.032Z,0
2023-11-25T20:31:05.755Z,0
2023-11-25T20:46:01.698Z,0
2023-11-25T21:00:02.391Z,0
2023-11-25T21:16:03.090Z,0
2023-11-25T21:31:03.907Z,0
2023-11-25T21:46:04.744Z,0
2023-11-25T22:00:04.468Z,0
2023-11-25T22:16:01.192Z,0
2023-11-25T22:31:02.235Z,0
2023-11-25T22:46:03.155Z,0
2023-11-25T23:00:03.109Z,0
2023-11-25T23:16:04.844Z,0
2023-11-25T23:31:04.694Z,0
2023-11-25T23:46:01.341Z,0
